createdAt,value
2022-11-07T00:01:49.649Z,100.00
2022-11-07T00:16:51.519Z,100.00
2022-11-07T00:31:53.012Z,100.00
2022-11-07T00:46:54.518Z,100.00
2022-11-07T01:01:56.108Z,100.00
2022-11-07T01:16:57.776Z,100.00
2022-11-07T01:31:59.247Z,100.00
2022-11-07T01:47:01.266Z,100.00
2022-11-07T02:02:03.731Z,100.00
2022-11-07T02:17:05.362Z,100.00
2022-11-07T02:32:08.314Z,100.00
2022-11-07T02:47:13.023Z,100.00
2022-11-07T03:02:14.565Z,100.00
2022-11-07T03:17:16.094Z,100.00
2022-11-07T03:32:17.593Z,100.00
2022-11-07T03:47:19.086Z,100.00
2022-11-07T04:02:20.690Z,100.00
2022-11-07T04:17:22.401Z,100.00
2022-11-07T04:32:24.513Z,100.00
2022-11-07T04:47:26.033Z,100.00
2022-11-07T05:02:28.104Z,100.00
2022-11-07T05:17:29.713Z,100.00
2022-11-07T05:32:31.178Z,100.00
2022-11-07T05:47:32.658Z,95.54
2022-11-07T06:02:34.262Z,100.00
2022-11-07T06:17:35.944Z,100.00
2022-11-07T06:32:37.437Z,100.00
2022-11-07T06:47:39.066Z,100.00
2022-11-07T07:18:02.344Z,100.00
2022-11-07T07:33:03.854Z,100.00
2022-11-07T07:48:05.563Z,100.00
2022-11-07T08:03:11.352Z,97.03
2022-11-07T08:18:12.864Z,88.13
2022-11-07T08:33:14.709Z,86.87
2022-11-07T08:48:17.123Z,87.97
2022-11-07T09:18:40.118Z,84.84
2022-11-07T09:33:41.665Z,81.06
2022-11-07T09:48:50.514Z,77.32
2022-11-07T10:04:23.575Z,78.04
2022-11-07T10:19:16.635Z,76.51
2022-11-07T10:34:21.873Z,75.65
2022-11-07T10:49:30.521Z,73.15
2022-11-07T11:04:32.998Z,72.07
2022-11-07T11:19:40.868Z,73.55
2022-11-07T11:34:57.415Z,70.33
2022-11-07T11:49:58.899Z,69.15
2022-11-07T12:05:15.307Z,69.30
2022-11-07T12:20:18.148Z,64.41
2022-11-07T12:35:28.728Z,66.49
2022-11-07T12:50:45.613Z,66.45
2022-11-07T13:05:54.882Z,67.16
2022-11-07T13:21:00.494Z,67.31
2022-11-07T13:36:13.074Z,69.32
2022-11-07T13:51:28.981Z,74.04
2022-11-07T14:06:31.869Z,75.97
2022-11-07T14:21:34.862Z,79.21
2022-11-07T14:36:36.321Z,84.58
2022-11-07T14:51:37.909Z,83.37
2022-11-07T15:06:43.785Z,85.70
2022-11-07T15:22:00.979Z,90.88
2022-11-07T15:37:08.515Z,90.79
2022-11-07T15:52:10.161Z,89.84
2022-11-07T16:07:18.813Z,88.91
2022-11-07T16:22:20.324Z,89.80
2022-11-07T16:37:21.801Z,96.31
2022-11-07T16:52:25.314Z,98.55
2022-11-07T17:07:26.803Z,100.00
2022-11-07T17:22:28.370Z,97.07
2022-11-07T17:37:29.848Z,100.00
2022-11-07T17:52:31.427Z,100.00
2022-11-07T18:07:33.967Z,97.93
2022-11-07T18:22:37.213Z,93.35
2022-11-07T18:37:41.630Z,90.05
2022-11-07T18:52:43.139Z,94.52
2022-11-07T19:07:45.036Z,95.15
2022-11-07T19:22:46.781Z,94.01
2022-11-07T19:37:48.284Z,95.04
2022-11-07T19:52:49.954Z,93.43
2022-11-07T20:07:55.300Z,92.33
2022-11-07T20:23:00.344Z,96.38
2022-11-07T20:38:01.833Z,99.22
2022-11-07T20:53:03.587Z,100.00
2022-11-07T21:08:05.249Z,99.25
2022-11-07T21:23:07.390Z,98.12
2022-11-07T21:38:08.844Z,99.68
2022-11-07T21:53:10.448Z,100.00
2022-11-07T22:16:09.013Z,100.00
2022-11-07T22:31:12.441Z,98.53
2022-11-07T22:46:15.089Z,100.00
2022-11-07T23:01:26.933Z,96.72
2022-11-07T23:16:33.161Z,100.00
2022-11-07T23:31:34.860Z,100.00
2022-11-07T23:46:55.651Z,100.00
